Time;durP1;ratioP1;P1;durP2;ratioP2;P2;SDS_P1;SDS_P2;PMS_P1;PMS_P2;Temp;Humidity;BMP_temperature;BMP_pressure;BME280_temperature;BME280_humidity;BME280_pressure;Samples;Min_cycle;Max_cycle;Signal;HPM_P1;HPM_P2
2023/09/09 00:00:53;;;;;;;4.70;3.20;;;;;;;14.65;85.44;100212.48;109380;1283;100777;-58
2023/09/09 00:03:34;;;;;;;4.80;3.40;;;;;;;14.59;85.62;100210.54;109436;1284;23146;-58
2023/09/09 00:06:11;;;;;;;6.30;3.20;;;;;;;14.55;86.05;100211.80;109380;1286;99917;-57
2023/09/09 00:08:40;;;;;;;3.60;3.10;;;;;;;14.54;86.09;100215.02;109450;1284;22117;-58
2023/09/09 00:11:09;;;;;;;6.50;3.80;;;;;;;14.51;86.16;100215.35;109632;1283;22074;-58
2023/09/09 00:13:40;;;;;;;4.00;2.90;;;;;;;14.49;86.27;100216.13;109543;1283;100180;-57
2023/09/09 00:16:08;;;;;;;12.50;3.90;;;;;;;14.49;86.16;100213.73;109594;1286;22338;-58
2023/09/09 00:18:37;;;;;;;5.80;4.00;;;;;;;14.46;86.22;100215.64;109515;1284;100504;-58
2023/09/09 00:21:06;;;;;;;4.70;3.20;;;;;;;14.43;86.25;100214.55;109590;1283;22294;-58
2023/09/09 00:23:34;;;;;;;5.30;2.90;;;;;;;14.41;86.39;100212.79;109439;1283;22909;-58
2023/09/09 00:26:03;;;;;;;2.60;2.30;;;;;;;14.38;86.38;100214.49;109344;1285;99747;-58
2023/09/09 00:28:32;;;;;;;4.30;3.40;;;;;;;14.33;86.33;100214.92;109512;1283;22125;-57
2023/09/09 00:31:01;;;;;;;4.50;3.70;;;;;;;14.31;86.69;100217.86;109353;1286;100301;-57
2023/09/09 00:33:30;;;;;;;5.60;3.30;;;;;;;14.30;87.06;100214.05;109597;1282;22183;-58
2023/09/09 00:36:00;;;;;;;4.50;3.40;;;;;;;14.29;87.19;100214.29;109518;1280;102095;-57
2023/09/09 00:38:29;;;;;;;6.10;3.40;;;;;;;14.28;87.24;100210.86;109400;1283;22174;-58
2023/09/09 00:41:18;;;;;;;4.20;2.90;;;;;;;14.24;87.18;100215.09;109536;1279;22630;-58
2023/09/09 00:43:47;;;;;;;6.20;2.80;;;;;;;14.20;87.20;100211.62;109314;1286;100202;-58
2023/09/09 00:46:17;;;;;;;3.50;3.00;;;;;;;14.18;87.24;100214.00;109617;1283;22410;-58
2023/09/09 00:48:46;;;;;;;3.10;2.70;;;;;;;14.11;87.01;100211.41;109182;1286;100765;-57
2023/09/09 00:51:15;;;;;;;3.60;2.60;;;;;;;14.08;87.05;100212.98;109592;1283;22983;-58
2023/09/09 00:53:44;;;;;;;5.80;3.50;;;;;;;14.07;87.06;100214.61;109446;1283;22463;-58
2023/09/09 00:56:12;;;;;;;4.00;2.70;;;;;;;14.07;87.31;100212.83;109370;1286;99416;-58
2023/09/09 00:58:41;;;;;;;4.00;2.80;;;;;;;14.07;87.36;100214.44;109452;1285;23049;-57
2023/09/09 01:01:09;;;;;;;3.70;1.90;;;;;;;14.05;87.30;100212.77;109469;1283;100182;-57
2023/09/09 01:03:38;;;;;;;4.40;2.90;;;;;;;14.01;87.42;100210.38;109599;1282;22383;-58
2023/09/09 01:06:07;;;;;;;3.00;2.30;;;;;;;13.99;87.73;100212.92;109344;1286;99163;-58
2023/09/09 01:08:38;;;;;;;5.30;2.50;;;;;;;13.97;87.92;100220.55;109611;1285;22323;-57
2023/09/09 01:11:06;;;;;;;2.10;1.80;;;;;;;13.93;87.91;100220.25;109476;1286;22259;-57
2023/09/09 01:13:35;;;;;;;2.90;2.40;;;;;;;13.89;87.81;100225.55;109372;1287;100347;-58
2023/09/09 01:16:05;;;;;;;2.00;1.70;;;;;;;13.86;87.80;100224.82;109299;1283;22336;-57
2023/09/09 01:18:34;;;;;;;2.40;2.10;;;;;;;13.81;87.92;100223.86;109394;1286;100799;-58
2023/09/09 01:21:12;;;;;;;2.00;1.70;;;;;;;13.79;87.88;100219.10;109414;1286;22127;-58
2023/09/09 01:23:41;;;;;;;2.20;2.00;;;;;;;13.72;87.60;100221.22;109603;1283;22341;-58
2023/09/09 01:26:10;;;;;;;3.40;2.20;;;;;;;13.69;88.01;100218.74;109198;1283;99577;-57
2023/09/09 01:28:38;;;;;;;2.70;2.10;;;;;;;13.66;87.93;100217.81;109298;1284;22209;-58
2023/09/09 01:31:07;;;;;;;3.10;2.20;;;;;;;13.64;88.09;100214.59;109366;1286;100106;-58
2023/09/09 01:33:35;;;;;;;2.50;2.00;;;;;;;13.61;88.31;100214.89;109436;1282;22436;-58
2023/09/09 01:36:05;;;;;;;4.00;2.10;;;;;;;13.60;88.47;100217.80;109541;1285;99944;-58
2023/09/09 01:38:34;;;;;;;4.20;3.10;;;;;;;13.58;88.55;100219.80;109552;1283;22327;-58
2023/09/09 01:41:03;;;;;;;3.70;2.70;;;;;;;13.56;88.37;100220.80;109394;1286;22174;-58
2023/09/09 01:43:32;;;;;;;4.50;3.10;;;;;;;13.53;88.44;100222.67;109530;1285;101033;-58
2023/09/09 01:46:01;;;;;;;4.70;3.00;;;;;;;13.50;88.69;100219.68;109429;1280;23042;-58
2023/09/09 01:48:29;;;;;;;5.50;3.30;;;;;;;13.50;89.17;100218.48;109522;1283;100261;-58
2023/09/09 01:50:58;;;;;;;4.20;3.20;;;;;;;13.52;89.48;100220.45;109608;1283;22311;-57
2023/09/09 01:53:27;;;;;;;3.40;2.80;;;;;;;13.53;89.69;100219.91;109649;1283;22333;-58
2023/09/09 01:55:57;;;;;;;6.00;2.60;;;;;;;13.51;89.85;100219.13;109533;1283;99946;-58
2023/09/09 01:58:26;;;;;;;3.60;2.70;;;;;;;13.52;89.98;100216.10;109616;1284;22383;-57
2023/09/09 02:00:55;;;;;;;4.00;2.80;;;;;;;13.54;90.28;100215.80;109554;1286;99598;-58
2023/09/09 02:03:25;;;;;;;5.20;3.30;;;;;;;13.56;90.70;100211.85;109635;1283;22682;-58
2023/09/09 02:05:54;;;;;;;2.50;2.30;;;;;;;13.58;91.01;100208.09;109641;1286;22120;-57
2023/09/09 02:08:23;;;;;;;4.30;3.20;;;;;;;13.60;91.10;100208.48;109622;1285;22735;-57
2023/09/09 02:10:51;;;;;;;3.40;2.40;;;;;;;13.60;91.32;100210.77;109623;1285;22322;-58
2023/09/09 02:13:20;;;;;;;4.50;2.70;;;;;;;13.62;91.34;100209.12;109552;1283;100096;-58
2023/09/09 02:15:48;;;;;;;3.70;2.50;;;;;;;13.65;91.60;100208.91;109650;1283;22136;-58
2023/09/09 02:18:17;;;;;;;4.30;2.50;;;;;;;13.71;91.76;100206.88;109366;1285;101328;-58
2023/09/09 02:20:47;;;;;;;3.70;2.60;;;;;;;13.77;92.10;100205.73;109638;1282;23615;-58
2023/09/09 02:23:15;;;;;;;4.40;2.60;;;;;;;13.79;92.09;100203.14;109576;1285;22194;-58
2023/09/09 02:25:44;;;;;;;3.70;2.70;;;;;;;13.84;92.44;100202.36;109485;1284;100899;-58
2023/09/09 02:28:13;;;;;;;3.70;2.80;;;;;;;13.90;92.63;100200.83;109574;1286;22298;-58
2023/09/09 02:30:44;;;;;;;3.30;2.70;;;;;;;13.95;92.72;100197.91;109478;1286;100307;-58
2023/09/09 02:33:13;;;;;;;2.30;2.10;;;;;;;14.00;92.71;100200.77;109386;1286;22166;-58
2023/09/09 02:35:44;;;;;;;2.50;2.10;;;;;;;14.01;92.44;100195.00;109578;1284;22156;-58
2023/09/09 02:38:12;;;;;;;2.70;2.30;;;;;;;14.01;92.55;100196.54;109508;1283;99500;-58
2023/09/09 02:40:41;;;;;;;3.90;2.10;;;;;;;14.03;92.41;100193.65;109438;1283;23166;-58
2023/09/09 02:43:10;;;;;;;8.50;2.60;;;;;;;14.05;92.49;100196.85;109422;1285;100291;-57
2023/09/09 02:45:39;;;;;;;2.70;2.40;;;;;;;14.07;92.64;100193.77;109357;1285;22184;-58
2023/09/09 02:48:08;;;;;;;2.50;2.30;;;;;;;14.14;93.26;100198.86;109467;1285;99645;-58
2023/09/09 02:50:36;;;;;;;3.30;2.40;;;;;;;14.23;93.67;100196.40;109505;1284;22302;-58
2023/09/09 02:53:05;;;;;;;2.70;2.30;;;;;;;14.30;93.65;100197.96;109528;1286;22403;-58
2023/09/09 02:55:34;;;;;;;3.70;3.70;;;;;;;14.36;93.63;100196.21;109420;1285;100116;-58
2023/09/09 02:58:02;;;;;;;4.80;2.10;;;;;;;14.38;93.24;100196.48;109616;1285;22379;-58
2023/09/09 03:00:31;;;;;;;2.80;2.10;;;;;;;14.40;93.37;100195.48;109464;1283;99833;-58
2023/09/09 03:03:00;;;;;;;4.20;2.40;;;;;;;14.42;93.29;100194.65;109535;1286;22301;-57
2023/09/09 03:05:29;;;;;;;4.30;2.10;;;;;;;14.40;92.84;100194.95;109557;1286;22277;-58
2023/09/09 03:07:58;;;;;;;3.50;2.20;;;;;;;14.33;92.68;100193.73;109499;1286;99519;-58
2023/09/09 03:10:27;;;;;;;2.20;2.00;;;;;;;14.29;92.55;100191.15;109519;1289;22258;-58
2023/09/09 03:12:59;;;;;;;2.70;2.10;;;;;;;14.25;92.56;100199.63;109414;1284;99536;-58
2023/09/09 03:15:27;;;;;;;2.50;2.20;;;;;;;14.22;92.80;100197.19;109340;1286;22170;-58
2023/09/09 03:17:56;;;;;;;2.90;1.60;;;;;;;14.18;92.76;100196.14;109555;1285;22172;-58
2023/09/09 03:20:24;;;;;;;3.10;2.10;;;;;;;14.14;92.49;100194.98;109533;1276;22124;-58
2023/09/09 03:22:53;;;;;;;2.20;1.80;;;;;;;14.09;92.58;100194.33;109474;1283;22211;-58
2023/09/09 03:25:22;;;;;;;2.50;1.90;;;;;;;14.09;92.63;100190.14;109464;1276;99661;-58
2023/09/09 03:27:53;;;;;;;2.20;1.70;;;;;;;14.06;92.54;100193.45;109640;1283;22838;-57
2023/09/09 03:30:22;;;;;;;3.30;2.30;;;;;;;14.01;92.41;100187.23;109368;1280;100262;-57
2023/09/09 03:32:50;;;;;;;2.70;2.20;;;;;;;13.99;92.47;100189.48;109653;1283;22877;-57
2023/09/09 03:35:19;;;;;;;2.40;2.00;;;;;;;13.94;92.42;100189.57;109439;1284;22221;-57
2023/09/09 03:37:48;;;;;;;3.10;2.10;;;;;;;13.97;93.29;100190.80;109560;1291;99503;-58
2023/09/09 03:40:17;;;;;;;3.10;2.10;;;;;;;14.06;93.78;100188.89;109472;1284;22172;-57
2023/09/09 03:42:45;;;;;;;3.40;2.50;;;;;;;14.18;93.99;100192.32;109539;1283;99621;-57
2023/09/09 03:45:14;;;;;;;2.20;2.00;;;;;;;14.30;94.26;100194.43;109683;1286;22879;-57
2023/09/09 03:47:42;;;;;;;3.10;2.50;;;;;;;14.41;94.48;100197.52;109641;1283;23119;-57
2023/09/09 03:50:11;;;;;;;2.10;1.90;;;;;;;14.51;94.50;100198.70;109543;1284;100624;-57
2023/09/09 03:52:39;;;;;;;2.90;2.00;;;;;;;14.60;94.41;100194.55;109655;1283;22973;-58
2023/09/09 03:55:08;;;;;;;3.00;2.20;;;;;;;14.70;94.45;100193.98;109395;1286;99688;-57
2023/09/09 03:57:37;;;;;;;2.20;1.90;;;;;;;14.80;94.40;100194.66;109615;1285;22396;-57
2023/09/09 04:00:08;;;;;;;2.10;1.80;;;;;;;14.87;94.17;100189.36;109562;1283;101081;-57
2023/09/09 04:02:37;;;;;;;2.20;2.00;;;;;;;14.86;93.97;100182.73;109411;1286;23049;-58
2023/09/09 04:05:07;;;;;;;3.10;2.10;;;;;;;14.90;94.19;100181.79;109640;1283;24723;-58
2023/09/09 04:07:36;;;;;;;4.40;2.00;;;;;;;14.94;94.08;100182.41;109538;1284;99632;-57
2023/09/09 04:10:05;;;;;;;2.20;1.80;;;;;;;14.97;94.07;100183.14;109618;1277;22196;-58
2023/09/09 04:12:34;;;;;;;2.50;1.70;;;;;;;14.99;94.00;100186.20;109559;1286;100824;-57
2023/09/09 04:15:03;;;;;;;3.00;1.90;;;;;;;15.00;93.88;100183.30;109636;1283;22193;-57
2023/09/09 04:17:33;;;;;;;2.10;1.70;;;;;;;15.03;93.80;100179.45;109625;1284;22102;-58
2023/09/09 04:20:03;;;;;;;4.20;2.30;;;;;;;15.06;93.69;100176.87;109523;1276;99228;-58
2023/09/09 04:22:32;;;;;;;2.10;1.90;;;;;;;15.03;93.35;100176.87;109634;1283;22224;-57
2023/09/09 04:25:01;;;;;;;3.30;2.40;;;;;;;14.97;93.47;100180.48;109586;1283;101327;-57
2023/09/09 04:27:30;;;;;;;3.80;1.90;;;;;;;14.95;93.61;100177.28;109647;1286;23386;-57
2023/09/09 04:29:58;;;;;;;3.10;2.20;;;;;;;14.96;93.61;100180.41;109563;1286;99683;-56
2023/09/09 04:32:31;;;;;;;2.60;1.80;;;;;;;14.96;93.52;100179.52;109626;1283;22215;-57
2023/09/09 04:34:59;;;;;;;3.50;2.20;;;;;;;14.95;93.54;100178.69;109640;1284;22206;-57
2023/09/09 04:37:30;;;;;;;2.50;2.30;;;;;;;14.93;93.38;100180.92;109469;1289;99484;-57
2023/09/09 04:39:58;;;;;;;2.40;2.20;;;;;;;14.93;93.64;100183.91;109667;1289;22296;-57
2023/09/09 04:42:27;;;;;;;4.40;1.80;;;;;;;14.99;93.74;100184.07;109569;1291;101451;-57
2023/09/09 04:44:56;;;;;;;2.40;2.20;;;;;;;15.06;93.67;100184.59;109649;1286;22151;-57
2023/09/09 04:47:25;;;;;;;2.40;1.90;;;;;;;15.10;93.51;100181.90;109655;1286;23692;-57
2023/09/09 04:49:56;;;;;;;2.20;1.70;;;;;;;15.14;93.48;100182.19;109522;1283;100041;-58
2023/09/09 04:52:24;;;;;;;2.40;1.70;;;;;;;15.15;93.32;100180.02;109437;1283;22937;-58
2023/09/09 04:54:53;;;;;;;2.80;1.50;;;;;;;15.10;92.89;100184.67;109353;1283;99577;-58
2023/09/09 04:57:21;;;;;;;2.10;1.80;;;;;;;15.05;92.95;100175.88;109428;1286;22871;-57
2023/09/09 04:59:50;;;;;;;2.00;1.70;;;;;;;15.05;93.14;100175.35;109614;1283;22310;-57
2023/09/09 05:02:19;;;;;;;5.40;2.00;;;;;;;15.09;93.24;100173.38;109521;1283;99843;-57
2023/09/09 05:04:47;;;;;;;6.50;2.40;;;;;;;15.14;93.33;100176.02;109618;1283;22108;-58
2023/09/09 05:07:17;;;;;;;3.50;1.90;;;;;;;15.22;93.41;100179.72;109373;1285;100488;-58
2023/09/09 05:09:45;;;;;;;4.50;2.40;;;;;;;15.33;93.37;100179.44;109434;1284;23072;-57
2023/09/09 05:12:14;;;;;;;4.30;2.30;;;;;;;15.44;93.31;100176.70;109370;1282;100565;-58
2023/09/09 05:14:43;;;;;;;3.30;2.00;;;;;;;15.54;93.17;100182.27;109416;1282;22174;-58
2023/09/09 05:17:12;;;;;;;3.90;2.10;;;;;;;15.60;93.06;100182.73;109432;1286;22897;-57
2023/09/09 05:19:41;;;;;;;2.60;2.20;;;;;;;15.68;93.07;100184.54;109533;1283;101801;-57
2023/09/09 05:22:10;;;;;;;5.00;2.20;;;;;;;15.74;92.98;100182.59;109584;1284;22196;-57
2023/09/09 05:24:39;;;;;;;3.20;2.40;;;;;;;15.81;92.83;100181.11;109323;1276;99700;-57
2023/09/09 05:27:07;;;;;;;2.70;1.80;;;;;;;15.86;92.74;100183.98;109381;1283;22568;-60
2023/09/09 05:29:36;;;;;;;2.70;1.80;;;;;;;15.91;92.65;100182.65;109325;1283;22155;-61
2023/09/09 05:32:05;;;;;;;2.00;1.60;;;;;;;15.95;92.46;100182.26;109477;1283;100146;-59
2023/09/09 05:34:34;;;;;;;2.80;1.80;;;;;;;15.99;92.31;100180.38;109568;1286;22293;-59
2023/09/09 05:37:02;;;;;;;2.00;1.80;;;;;;;16.07;92.27;100176.05;109438;1284;99712;-61
2023/09/09 05:39:31;;;;;;;2.00;1.30;;;;;;;16.20;92.32;100176.27;109571;1283;22625;-61
2023/09/09 05:42:00;;;;;;;1.50;1.40;;;;;;;16.36;92.04;100175.96;109197;1283;100196;-61
2023/09/09 05:44:28;;;;;;;1.60;1.40;;;;;;;16.52;91.84;100174.54;109192;1283;22171;-60
2023/09/09 05:46:57;;;;;;;2.40;1.70;;;;;;;16.66;91.58;100182.58;109588;1283;23075;-61
2023/09/09 05:49:25;;;;;;;1.20;1.10;;;;;;;16.79;91.31;100184.93;109480;1284;99555;-60
2023/09/09 05:52:07;;;;;;;1.70;1.20;;;;;;;16.92;91.05;100183.95;109561;1286;23033;-61
2023/09/09 05:54:37;;;;;;;2.50;1.80;;;;;;;17.01;90.79;100180.69;109278;1284;99782;-60
2023/09/09 05:57:06;;;;;;;2.30;1.60;;;;;;;17.10;90.44;100184.13;109556;1285;22393;-57
2023/09/09 05:59:34;;;;;;;3.20;1.20;;;;;;;17.21;90.24;100184.61;109627;1284;22166;-58
2023/09/09 06:02:04;;;;;;;1.70;1.00;;;;;;;17.33;89.80;100184.88;109577;1285;100453;-58
2023/09/09 06:04:32;;;;;;;2.10;1.60;;;;;;;17.47;89.41;100186.22;109598;1284;22234;-58
2023/09/09 06:07:03;;;;;;;2.00;1.10;;;;;;;17.60;89.01;100183.32;109329;1285;253539;-58
2023/09/09 06:09:34;;;;;;;1.90;1.40;;;;;;;17.78;88.88;100186.19;109625;1283;22152;-58
2023/09/09 06:12:05;;;;;;;2.20;1.40;;;;;;;18.00;88.67;100183.73;109525;1283;99748;-58
2023/09/09 06:14:35;;;;;;;3.90;1.50;;;;;;;18.26;88.38;100186.15;109371;1283;22202;-58
2023/09/09 06:17:04;;;;;;;2.80;1.80;;;;;;;18.54;88.74;100184.61;109621;1284;22847;-58
2023/09/09 06:19:33;;;;;;;2.50;1.50;;;;;;;18.81;88.72;100185.83;109358;1286;99777;-58
2023/09/09 06:22:01;;;;;;;2.50;1.70;;;;;;;19.05;88.52;100188.63;109394;1283;22195;-57
2023/09/09 06:24:31;;;;;;;2.30;1.10;;;;;;;19.24;87.43;100190.73;109244;1284;100265;-59
2023/09/09 06:27:00;;;;;;;2.20;1.30;;;;;;;19.42;86.68;100192.06;109438;1283;22970;-59
2023/09/09 06:29:29;;;;;;;4.60;1.10;;;;;;;19.54;86.20;100195.21;109619;1283;23021;-58
2023/09/09 06:31:58;;;;;;;1.90;1.20;;;;;;;19.63;85.51;100197.10;109303;1283;100706;-58
2023/09/09 06:34:27;;;;;;;3.40;1.00;;;;;;;19.78;85.00;100199.50;109386;1286;101628;-59
2023/09/09 06:36:57;;;;;;;3.70;1.50;;;;;;;19.95;84.33;100202.10;109584;1284;22299;-58
2023/09/09 06:39:26;;;;;;;3.70;1.10;;;;;;;20.09;83.82;100203.46;109548;1282;99491;-58
2023/09/09 06:41:55;;;;;;;2.60;1.40;;;;;;;20.16;83.08;100205.73;109624;1283;23071;-58
2023/09/09 06:44:25;;;;;;;3.10;1.40;;;;;;;20.27;82.71;100207.09;109488;1283;98651;-59
2023/09/09 06:46:53;;;;;;;1.70;0.90;;;;;;;20.46;82.45;100201.93;109542;1283;22236;-59
2023/09/09 06:49:22;;;;;;;1.70;1.10;;;;;;;20.66;82.00;100200.45;109608;1282;22041;-58
2023/09/09 06:51:51;;;;;;;1.20;1.10;;;;;;;20.88;81.54;100197.94;109350;1285;100004;-58
2023/09/09 06:54:19;;;;;;;1.20;1.00;;;;;;;21.11;81.32;100195.15;109576;1284;22330;-58
2023/09/09 06:56:48;;;;;;;2.20;1.40;;;;;;;21.38;80.94;100199.10;109265;1286;99679;-59
2023/09/09 06:59:17;;;;;;;1.70;1.00;;;;;;;21.60;80.36;100198.05;109602;1276;22227;-58
2023/09/09 07:01:46;;;;;;;1.50;1.10;;;;;;;21.81;80.04;100195.05;109545;1283;22252;-58
2023/09/09 07:04:14;;;;;;;2.40;1.60;;;;;;;22.02;79.81;100194.64;109520;1283;99591;-57
2023/09/09 07:06:43;;;;;;;1.70;1.20;;;;;;;22.16;79.16;100196.98;109607;1288;22343;-61
2023/09/09 07:09:33;;;;;;;4.30;1.40;;;;;;;22.37;78.85;100201.85;109565;1283;99502;-62
2023/09/09 07:12:02;;;;;;;1.30;1.00;;;;;;;22.48;78.38;100196.44;109629;1285;22162;-59
2023/09/09 07:14:31;;;;;;;1.20;1.10;;;;;;;22.60;78.03;100195.59;109330;1286;99781;-59
2023/09/09 07:17:03;;;;;;;1.10;0.90;;;;;;;22.84;77.85;100199.27;109437;1286;22344;-58
2023/09/09 07:19:32;;;;;;;2.40;1.20;;;;;;;23.11;77.23;100197.70;109365;1286;22358;-60
2023/09/09 07:22:01;;;;;;;2.00;1.30;;;;;;;23.31;76.76;100199.16;109198;1283;100088;-60
2023/09/09 07:24:29;;;;;;;1.50;1.10;;;;;;;23.49;76.32;100205.55;109458;1284;22242;-61
2023/09/09 07:27:03;;;;;;;1.30;1.20;;;;;;;23.77;76.24;100197.41;109412;1285;99902;-60
2023/09/09 07:29:33;;;;;;;2.40;1.40;;;;;;;24.12;76.04;100201.13;109408;1284;22238;-60
2023/09/09 07:32:07;;;;;;;1.00;0.80;;;;;;;24.38;75.70;100197.39;109339;1283;99537;-59
2023/09/09 07:34:36;;;;;;;1.50;1.20;;;;;;;24.67;75.27;100194.42;109397;1286;22224;-60
2023/09/09 07:37:05;;;;;;;2.30;1.00;;;;;;;25.04;74.61;100198.75;109458;1286;22158;-59
2023/09/09 07:39:44;;;;;;;1.80;1.30;;;;;;;25.62;74.64;100194.23;109205;1289;100249;-60
2023/09/09 07:42:14;;;;;;;1.50;1.20;;;;;;;26.18;73.45;100200.42;109474;1286;22153;-62
2023/09/09 07:44:43;;;;;;;1.40;1.20;;;;;;;26.52;72.76;100204.46;109302;1286;99788;-61
2023/09/09 07:47:13;;;;;;;1.20;1.00;;;;;;;27.07;72.57;100200.13;109623;1285;22295;-60
2023/09/09 07:49:42;;;;;;;1.40;1.00;;;;;;;28.16;73.31;100196.58;109401;1285;23075;-62
2023/09/09 07:52:10;;;;;;;1.30;1.10;;;;;;;29.54;72.61;100196.91;109550;1283;99373;-60
2023/09/09 07:54:40;;;;;;;1.20;0.90;;;;;;;30.63;71.36;100195.30;109520;1285;22146;-63
2023/09/09 07:57:09;;;;;;;1.30;1.10;;;;;;;31.48;70.32;100199.23;109262;1283;99983;-62
2023/09/09 07:59:38;;;;;;;1.50;1.00;;;;;;;31.93;68.10;100196.73;109619;1283;22292;-62
2023/09/09 08:02:08;;;;;;;2.70;1.10;;;;;;;32.21;67.36;100195.40;109350;1283;122634;-65
2023/09/09 08:04:37;;;;;;;1.00;0.90;;;;;;;33.01;67.06;100194.44;109267;1286;22358;-61
2023/09/09 08:07:06;;;;;;;2.30;1.20;;;;;;;34.77;67.23;100195.25;109381;1286;22279;-61
2023/09/09 08:09:34;;;;;;;2.10;1.30;;;;;;;36.38;65.24;100189.89;109195;1283;99072;-61
2023/09/09 08:12:03;;;;;;;1.60;1.00;;;;;;;37.50;63.73;100188.39;109627;1283;22156;-62
2023/09/09 08:14:35;;;;;;;2.10;1.10;;;;;;;38.67;62.39;100189.86;109519;1286;99701;-61
2023/09/09 08:17:04;;;;;;;4.00;2.90;;;;;;;39.59;60.53;100191.98;109396;1282;23316;-62
2023/09/09 08:19:32;;;;;;;1.50;1.00;;;;;;;40.15;57.66;100193.14;109625;1286;22009;-59
2023/09/09 08:22:01;;;;;;;1.80;0.80;;;;;;;39.78;55.44;100193.57;109519;1286;98683;-60
2023/09/09 08:24:30;;;;;;;0.80;0.80;;;;;;;39.97;55.61;100190.29;109616;1286;22306;-59
2023/09/09 08:26:59;;;;;;;1.20;0.90;;;;;;;41.42;54.10;100190.89;109382;1289;99525;-59
2023/09/09 08:29:28;;;;;;;1.70;1.30;;;;;;;42.58;52.17;100184.10;109375;1286;22090;-59
2023/09/09 08:31:56;;;;;;;1.10;1.00;;;;;;;43.26;49.90;100187.67;109289;1289;23014;-59
2023/09/09 08:34:25;;;;;;;2.30;0.90;;;;;;;43.52;47.88;100188.88;109544;1283;99398;-59
2023/09/09 08:36:54;;;;;;;1.30;1.10;;;;;;;43.96;46.86;100190.71;109600;1283;22384;-59
2023/09/09 08:39:24;;;;;;;1.70;0.90;;;;;;;44.50;44.85;100190.23;109304;1283;99619;-60
2023/09/09 08:42:22;;;;;;;1.50;1.10;;;;;;;45.29;44.11;100183.77;109361;1284;22268;-60
2023/09/09 08:45:10;;;;;;;1.10;0.60;;;;;;;46.21;41.93;100184.86;108668;1292;100068;-60
2023/09/09 08:47:41;;;;;;;1.20;1.00;;;;;;;46.24;39.59;100186.64;108756;1291;22257;-60
2023/09/09 08:50:13;;;;;;;1.30;1.00;;;;;;;46.11;37.39;100186.55;108426;1292;99861;-59
2023/09/09 08:52:43;;;;;;;1.10;0.80;;;;;;;46.01;36.71;100190.63;108753;1291;23299;-60
2023/09/09 08:55:12;;;;;;;1.40;1.10;;;;;;;45.36;35.18;100189.32;108753;1292;22160;-60
2023/09/09 08:57:41;;;;;;;1.70;1.00;;;;;;;44.33;34.16;100189.73;108502;1295;99688;-60
2023/09/09 09:00:11;;;;;;;2.10;1.30;;;;;;;43.71;33.68;100191.73;108762;1291;22193;-61
2023/09/09 09:02:40;;;;;;;1.10;0.90;;;;;;;43.73;33.39;100185.30;108639;1292;99679;-61
2023/09/09 09:05:10;;;;;;;1.10;0.90;;;;;;;43.45;32.53;100185.59;108503;1292;23106;-61
2023/09/09 09:07:39;;;;;;;1.20;1.10;;;;;;;42.86;32.06;100177.00;108689;1292;22490;-60
2023/09/09 09:10:08;;;;;;;2.70;0.90;;;;;;;42.85;31.77;100173.70;108617;1292;100171;-61
2023/09/09 09:12:40;;;;;;;0.70;0.60;;;;;;;43.10;31.19;100176.10;108767;1291;22350;-61
2023/09/09 09:15:10;;;;;;;1.20;1.10;;;;;;;42.94;30.37;100173.15;108622;1291;99826;-65
2023/09/09 09:17:41;;;;;;;3.20;1.00;;;;;;;42.65;30.22;100171.33;108570;1295;22484;-65
2023/09/09 09:20:40;;;;;;;1.80;1.10;;;;;;;43.25;30.41;100170.63;108663;1291;99927;-65
2023/09/09 09:23:13;;;;;;;2.10;1.30;;;;;;;44.02;29.83;100168.23;109349;1288;22253;-65
2023/09/09 09:25:47;;;;;;;1.20;1.10;;;;;;;44.11;29.25;100174.02;109606;1283;23106;-65
2023/09/09 09:28:16;;;;;;;1.70;1.00;;;;;;;44.50;29.22;100174.05;109185;1283;99649;-65
2023/09/09 09:30:45;;;;;;;1.20;1.10;;;;;;;45.10;28.46;100169.77;109352;1284;22176;-65
2023/09/09 09:33:15;;;;;;;0.90;0.80;;;;;;;45.46;28.04;100172.58;109486;1285;100588;-65
2023/09/09 09:35:43;;;;;;;1.50;0.80;;;;;;;46.19;27.74;100170.25;109600;1286;23204;-65
2023/09/09 09:38:14;;;;;;;1.40;0.80;;;;;;;46.34;26.78;100171.64;109515;1285;99830;-65
2023/09/09 09:40:44;;;;;;;1.40;1.20;;;;;;;45.19;25.74;100173.40;109392;1286;22314;-64
2023/09/09 09:43:20;;;;;;;0.90;0.70;;;;;;;44.79;25.57;100173.33;109556;1285;22349;-65
2023/09/09 09:45:48;;;;;;;1.50;1.40;;;;;;;45.18;24.83;100167.92;109323;1283;101055;-65
2023/09/09 09:48:27;;;;;;;0.80;0.80;;;;;;;44.56;24.02;100165.27;109405;1286;22154;-65
2023/09/09 09:50:56;;;;;;;1.80;1.20;;;;;;;44.69;23.74;100163.83;109551;1284;99590;-65
2023/09/09 09:53:25;;;;;;;3.00;1.30;;;;;;;45.36;23.55;100161.27;109633;1284;22304;-65
2023/09/09 09:55:55;;;;;;;3.60;1.10;;;;;;;45.22;23.43;100161.83;109605;1286;22155;-65
2023/09/09 09:58:29;;;;;;;1.10;0.90;;;;;;;45.53;23.65;100160.27;109523;1284;99295;-65
2023/09/09 10:01:00;;;;;;;2.30;1.20;;;;;;;46.12;23.75;100164.20;109587;1286;23112;-66
2023/09/09 10:03:41;;;;;;;3.20;1.60;;;;;;;46.54;23.30;100160.58;109291;1289;100480;-66
2023/09/09 10:06:12;;;;;;;1.90;1.60;;;;;;;47.11;23.30;100166.11;109585;1283;22152;-66
2023/09/09 10:08:52;;;;;;;1.20;0.90;;;;;;;48.09;23.22;100165.91;109492;1288;100143;-66
2023/09/09 10:11:24;;;;;;;1.70;1.20;;;;;;;49.21;22.86;100163.23;109568;1285;22179;-68
2023/09/09 10:14:09;;;;;;;1.00;1.00;;;;;;;50.16;22.69;100165.16;109420;1285;22170;-64
2023/09/09 10:16:38;;;;;;;1.40;1.30;;;;;;;50.88;22.23;100162.99;109330;1284;22370;-60
2023/09/09 10:19:08;;;;;;;1.10;1.00;;;;;;;51.52;21.94;100162.53;109415;1286;22395;-60
2023/09/09 10:21:39;;;;;;;1.60;1.30;;;;;;;51.98;21.47;100162.77;109231;1285;99980;-60
2023/09/09 10:24:11;;;;;;;2.10;1.40;;;;;;;51.83;20.59;100157.55;109247;1289;22480;-59
2023/09/09 10:26:43;;;;;;;1.50;1.40;;;;;;;51.05;20.38;100155.95;109411;1280;100236;-62
2023/09/09 10:29:13;;;;;;;1.30;1.20;;;;;;;50.45;20.09;100151.66;109069;1283;23037;-59
2023/09/09 10:31:43;;;;;;;1.60;1.40;;;;;;;50.44;19.97;100152.04;109517;1283;22300;-60
2023/09/09 10:34:14;;;;;;;2.40;1.70;;;;;;;50.65;19.58;100155.50;109064;1289;100301;-62
2023/09/09 10:36:44;;;;;;;1.50;1.40;;;;;;;49.96;19.22;100150.91;109511;1286;22315;-61
2023/09/09 10:39:29;;;;;;;2.30;1.90;;;;;;;49.03;19.29;100145.60;109465;1286;99109;-61
2023/09/09 10:41:59;;;;;;;1.70;1.60;;;;;;;48.52;19.18;100149.52;109505;1283;22268;-60
2023/09/09 10:44:28;;;;;;;1.40;1.10;;;;;;;47.90;19.05;100147.81;109486;1284;99506;-62
2023/09/09 10:46:57;;;;;;;6.10;1.70;;;;;;;47.85;19.20;100152.29;109289;1291;22483;-60
2023/09/09 10:49:30;;;;;;;1.90;1.50;;;;;;;48.66;19.31;100146.17;109437;1284;22373;-65
2023/09/09 10:51:59;;;;;;;1.70;1.50;;;;;;;49.58;18.95;100148.39;109347;1283;99896;-63
2023/09/09 10:54:34;;;;;;;1.50;1.40;;;;;;;50.63;19.03;100151.11;109571;1286;22419;-63
2023/09/09 10:57:03;;;;;;;1.90;1.70;;;;;;;51.51;18.88;100147.65;109197;1283;100777;-63
2023/09/09 10:59:32;;;;;;;2.70;2.20;;;;;;;52.25;18.51;100150.27;109564;1283;22036;-62
2023/09/09 11:02:12;;;;;;;1.90;1.80;;;;;;;52.47;18.27;100149.55;109462;1283;22193;-62
2023/09/09 11:04:42;;;;;;;3.20;1.80;;;;;;;51.29;17.43;100146.01;109383;1283;23146;-63
2023/09/09 11:07:13;;;;;;;2.40;2.30;;;;;;;50.30;17.76;100146.39;109589;1284;22204;-66
2023/09/09 11:09:53;;;;;;;3.50;2.10;;;;;;;51.20;18.15;100143.73;109460;1285;100585;-63
2023/09/09 11:12:27;;;;;;;2.70;2.50;;;;;;;52.07;17.94;100140.52;109592;1283;22078;-63
2023/09/09 11:15:09;;;;;;;3.40;2.50;;;;;;;52.40;17.45;100141.73;109499;1286;100289;-64
2023/09/09 11:17:45;;;;;;;2.60;2.30;;;;;;;52.22;17.21;100141.86;109556;1283;23092;-61
2023/09/09 11:20:15;;;;;;;2.60;2.40;;;;;;;51.83;17.22;100141.65;109508;1283;101451;-64
2023/09/09 11:22:45;;;;;;;2.00;1.90;;;;;;;51.07;16.80;100136.80;109558;1283;23086;-63
2023/09/09 11:25:16;;;;;;;6.30;2.10;;;;;;;50.07;16.49;100134.71;109576;1286;22251;-65
2023/09/09 11:27:46;;;;;;;2.60;1.90;;;;;;;49.06;16.30;100131.42;109543;1283;102043;-63
2023/09/09 11:30:15;;;;;;;3.60;2.30;;;;;;;48.05;16.42;100128.80;109550;1286;22114;-62